Time;durP1;ratioP1;P1;durP2;ratioP2;P2;SDS_P1;SDS_P2;PMS_P1;PMS_P2;Temp;Humidity;BMP_temperature;BMP_pressure;BME280_temperature;BME280_humidity;BME280_pressure;Samples;Min_cycle;Max_cycle;Signal;HPM_P1;HPM_P2
2023/08/12 00:01:48;;;;;;;15.27;6.97;;;18.60;99.90;;;;;;5075312;28;20088;-63
2023/08/12 00:04:15;;;;;;;10.85;5.72;;;18.70;99.90;;;;;;5059487;28;20105;-62
2023/08/12 00:06:41;;;;;;;11.07;6.07;;;18.60;99.90;;;;;;5075740;28;20059;-63
2023/08/12 00:09:08;;;;;;;14.30;6.40;;;18.70;99.90;;;;;;5093913;28;20070;-63
2023/08/12 00:11:35;;;;;;;11.85;5.60;;;18.60;99.90;;;;;;5076180;28;20047;-63
2023/08/12 00:14:01;;;;;;;13.77;5.78;;;18.60;99.90;;;;;;5075650;28;20036;-62
2023/08/12 00:16:26;;;;;;;11.75;5.43;;;18.60;99.90;;;;;;5075642;28;20051;-63
2023/08/12 00:18:52;;;;;;;8.75;5.07;;;18.70;99.90;;;;;;5075699;28;20144;-62
2023/08/12 00:21:18;;;;;;;11.02;5.32;;;18.60;99.90;;;;;;5075361;28;20069;-62
2023/08/12 00:23:44;;;;;;;9.43;5.78;;;18.60;99.90;;;;;;5093457;28;20067;-62
2023/08/12 00:26:10;;;;;;;10.77;5.15;;;18.70;99.90;;;;;;5075770;28;20405;-63
2023/08/12 00:28:36;;;;;;;9.85;4.72;;;18.60;99.90;;;;;;5093038;28;20558;-62
2023/08/12 00:31:02;;;;;;;11.60;5.53;;;18.70;99.90;;;;;;5093843;28;20102;-63
2023/08/12 00:33:28;;;;;;;10.38;4.90;;;18.60;99.90;;;;;;5075165;28;20071;-63
2023/08/12 00:35:54;;;;;;;9.15;4.25;;;18.60;99.90;;;;;;5075134;28;20044;-63
2023/08/12 00:38:21;;;;;;;12.00;5.32;;;18.60;99.90;;;;;;5075215;28;20047;-62
2023/08/12 00:40:46;;;;;;;11.43;4.60;;;18.60;99.90;;;;;;5075581;28;20086;-63
2023/08/12 00:43:12;;;;;;;10.35;4.60;;;18.60;99.90;;;;;;5092933;28;20118;-62
2023/08/12 00:45:38;;;;;;;9.93;4.72;;;18.60;99.90;;;;;;5074944;28;20089;-63
2023/08/12 00:48:05;;;;;;;9.57;4.68;;;18.50;99.90;;;;;;5093503;28;20048;-63
2023/08/12 00:50:31;;;;;;;8.52;4.13;;;18.50;99.90;;;;;;5092971;28;20122;-63
2023/08/12 00:52:58;;;;;;;8.35;4.10;;;18.50;99.90;;;;;;5075376;28;20044;-63
2023/08/12 00:55:25;;;;;;;10.13;4.32;;;18.60;99.90;;;;;;5092827;28;20048;-63
2023/08/12 00:57:51;;;;;;;9.05;4.10;;;18.50;99.90;;;;;;5074911;28;20051;-63
2023/08/12 01:00:19;;;;;;;9.40;4.78;;;18.60;99.90;;;;;;5075325;28;20043;-63
2023/08/12 01:02:48;;;;;;;8.63;3.65;;;18.60;99.90;;;;;;5092703;28;20036;-63
2023/08/12 01:05:15;;;;;;;8.90;4.53;;;18.60;99.90;;;;;;5092931;28;20067;-63
2023/08/12 01:07:42;;;;;;;8.50;3.63;;;18.60;99.90;;;;;;5074993;28;20420;-63
2023/08/12 01:10:10;;;;;;;9.00;4.03;;;18.70;99.90;;;;;;5092338;28;20051;-63
2023/08/12 01:13:02;;;;;;;8.07;4.70;;;18.60;99.90;;;;;;5074412;28;20110;-63
2023/08/12 01:15:28;;;;;;;9.63;4.80;;;18.60;99.90;;;;;;5074106;28;20127;-62
2023/08/12 01:17:55;;;;;;;9.50;5.60;;;18.60;99.90;;;;;;5092618;28;20036;-62
2023/08/12 01:20:25;;;;;;;8.13;4.72;;;18.60;99.90;;;;;;5074320;28;20032;-63
2023/08/12 01:22:57;;;;;;;8.38;4.80;;;18.60;99.90;;;;;;5074756;28;20101;-63
2023/08/12 01:25:24;;;;;;;9.25;5.10;;;18.60;99.90;;;;;;5074375;28;20389;-62
2023/08/12 01:27:50;;;;;;;10.10;4.90;;;18.60;99.90;;;;;;5092235;28;20116;-62
2023/08/12 01:30:18;;;;;;;8.77;4.93;;;18.60;99.90;;;;;;5074640;28;20127;-63
2023/08/12 01:32:54;;;;;;;9.23;5.43;;;18.50;99.90;;;;;;5057248;28;20047;-62
2023/08/12 01:35:38;;;;;;;7.53;4.55;;;18.50;99.90;;;;;;5074403;28;20044;-62
2023/08/12 01:38:06;;;;;;;8.10;5.28;;;18.50;99.90;;;;;;5073875;28;20097;-61
2023/08/12 01:40:33;;;;;;;9.13;4.68;;;18.40;99.90;;;;;;5092257;28;20111;-61
2023/08/12 01:43:00;;;;;;;9.43;4.70;;;18.40;99.90;;;;;;5092733;28;20032;-61
2023/08/12 01:45:26;;;;;;;7.93;4.50;;;18.40;99.90;;;;;;5057399;28;20048;-61
2023/08/12 01:47:51;;;;;;;10.73;5.20;;;18.40;99.90;;;;;;5057061;28;20385;-61
2023/08/12 01:50:19;;;;;;;10.55;5.18;;;18.40;99.90;;;;;;5074166;28;20050;-60
2023/08/12 01:52:44;;;;;;;10.25;5.53;;;18.40;99.90;;;;;;5091915;28;20111;-61
2023/08/12 01:55:10;;;;;;;8.70;5.55;;;18.40;99.90;;;;;;5074010;28;20182;-61
2023/08/12 01:57:36;;;;;;;12.82;5.82;;;18.40;99.90;;;;;;5092304;28;20032;-61
2023/08/12 02:00:02;;;;;;;10.15;5.50;;;18.30;99.90;;;;;;5073703;28;20381;-61
2023/08/12 02:02:28;;;;;;;8.57;5.20;;;18.30;99.90;;;;;;5056787;28;20052;-61
2023/08/12 02:04:53;;;;;;;10.40;5.70;;;18.30;99.90;;;;;;5074342;28;20162;-60
2023/08/12 02:07:19;;;;;;;8.95;5.03;;;18.30;99.90;;;;;;5091416;28;20040;-60
2023/08/12 02:09:45;;;;;;;10.98;5.30;;;18.30;99.90;;;;;;5073703;28;20063;-61
2023/08/12 02:12:10;;;;;;;10.48;5.32;;;18.30;99.90;;;;;;5092213;28;20078;-61
2023/08/12 02:14:36;;;;;;;10.75;5.55;;;18.40;99.90;;;;;;5073398;28;20405;-61
2023/08/12 02:17:05;;;;;;;10.43;6.40;;;18.30;99.90;;;;;;5091730;28;20036;-60
2023/08/12 02:19:32;;;;;;;11.30;6.68;;;18.40;99.90;;;;;;5092012;28;20036;-61
2023/08/12 02:21:58;;;;;;;11.73;6.72;;;18.40;99.90;;;;;;5074086;28;20470;-61
2023/08/12 02:24:24;;;;;;;9.82;5.60;;;18.40;99.90;;;;;;5094785;28;20036;-60
2023/08/12 02:26:50;;;;;;;10.10;6.47;;;18.40;99.90;;;;;;5077578;28;20081;-60
2023/08/12 02:29:15;;;;;;;9.38;5.90;;;18.50;99.90;;;;;;5095659;28;20040;-60
2023/08/12 02:31:41;;;;;;;10.80;6.10;;;18.40;99.90;;;;;;5078269;28;20044;-61
2023/08/12 02:34:07;;;;;;;10.95;6.43;;;18.50;99.90;;;;;;5095294;28;20454;-60
2023/08/12 02:36:33;;;;;;;10.77;6.38;;;18.50;99.90;;;;;;5077412;28;20036;-60
2023/08/12 02:38:58;;;;;;;10.02;7.55;;;18.50;99.90;;;;;;5096266;28;20048;-61
2023/08/12 02:41:24;;;;;;;10.88;6.40;;;18.50;99.90;;;;;;5095426;28;20040;-60
2023/08/12 02:43:50;;;;;;;10.05;6.07;;;18.50;99.90;;;;;;5095507;28;20397;-61
2023/08/12 02:46:15;;;;;;;10.02;6.05;;;18.50;99.90;;;;;;5060898;28;20461;-60
2023/08/12 02:48:43;;;;;;;10.80;6.22;;;18.50;99.90;;;;;;5095021;28;20051;-60
2023/08/12 02:51:08;;;;;;;11.73;6.47;;;18.50;99.90;;;;;;5077368;28;20051;-60
2023/08/12 02:53:34;;;;;;;10.90;6.68;;;18.50;99.90;;;;;;5077592;28;20044;-60
2023/08/12 02:56:00;;;;;;;11.30;5.78;;;18.50;99.90;;;;;;5060529;28;20032;-60
2023/08/12 02:58:25;;;;;;;9.32;6.07;;;18.50;99.90;;;;;;5095192;28;20043;-60
2023/08/12 03:00:51;;;;;;;11.30;6.45;;;18.50;99.90;;;;;;5077233;28;20032;-60
2023/08/12 03:03:17;;;;;;;11.30;6.78;;;18.50;99.90;;;;;;5076563;28;20385;-61
2023/08/12 03:05:48;;;;;;;13.10;6.93;;;18.40;99.90;;;;;;5095166;28;20445;-61
2023/08/12 03:08:14;;;;;;;12.52;6.40;;;18.50;99.90;;;;;;5077265;28;20036;-61
2023/08/12 03:10:41;;;;;;;12.65;7.07;;;18.50;99.90;;;;;;5094852;28;20036;-61
2023/08/12 03:13:06;;;;;;;13.00;7.03;;;18.50;99.90;;;;;;5094783;28;20036;-60
2023/08/12 03:15:32;;;;;;;10.95;6.50;;;18.50;99.90;;;;;;5095322;28;20032;-61
2023/08/12 03:17:58;;;;;;;10.52;6.97;;;18.50;99.90;;;;;;5059988;28;20047;-61
2023/08/12 03:20:23;;;;;;;9.60;6.22;;;18.50;99.90;;;;;;5077239;28;20142;-60
2023/08/12 03:22:49;;;;;;;13.60;6.72;;;18.60;99.90;;;;;;5077214;28;20393;-60
2023/08/12 03:25:15;;;;;;;11.82;6.13;;;18.50;99.90;;;;;;5094290;28;20374;-60
2023/08/12 03:27:41;;;;;;;20.80;6.57;;;18.60;99.90;;;;;;5076479;28;20048;-60
2023/08/12 03:30:07;;;;;;;12.43;7.18;;;18.60;99.90;;;;;;5094523;28;20047;-61
2023/08/12 03:32:33;;;;;;;10.90;7.25;;;18.50;99.90;;;;;;5076673;28;20048;-60
2023/08/12 03:34:59;;;;;;;10.68;7.57;;;18.50;99.90;;;;;;5058826;28;20123;-60
2023/08/12 03:37:26;;;;;;;12.48;6.82;;;18.60;99.90;;;;;;5076391;28;20043;-61
2023/08/12 03:39:51;;;;;;;11.90;7.10;;;18.60;99.90;;;;;;5076460;28;20115;-60
2023/08/12 03:42:17;;;;;;;11.80;7.63;;;18.60;99.90;;;;;;5095143;28;20122;-61
2023/08/12 03:44:46;;;;;;;11.25;6.57;;;18.50;99.90;;;;;;5075792;28;20044;-61
2023/08/12 03:47:12;;;;;;;13.75;7.68;;;18.50;99.90;;;;;;5076263;28;20052;-61
2023/08/12 03:49:38;;;;;;;12.48;7.40;;;18.60;99.90;;;;;;5094424;28;20056;-63
2023/08/12 03:52:06;;;;;;;17.85;8.55;;;18.60;99.90;;;;;;5076150;28;20047;-63
2023/08/12 03:54:32;;;;;;;13.18;7.70;;;18.60;99.90;;;;;;5093834;28;20561;-62
2023/08/12 03:56:58;;;;;;;10.48;6.40;;;18.60;99.90;;;;;;5094523;28;20378;-63
2023/08/12 03:59:24;;;;;;;10.73;6.68;;;18.60;99.90;;;;;;5093973;28;20066;-63
2023/08/12 04:01:49;;;;;;;12.13;7.43;;;18.60;99.90;;;;;;5076034;28;20118;-63
2023/08/12 04:04:15;;;;;;;12.57;6.70;;;18.70;99.90;;;;;;5076337;28;20044;-63
2023/08/12 04:06:41;;;;;;;11.70;7.30;;;18.60;99.90;;;;;;5075647;28;20089;-63
2023/08/12 04:09:06;;;;;;;13.63;7.88;;;18.60;99.90;;;;;;5094111;28;20035;-63
2023/08/12 04:11:32;;;;;;;15.43;7.80;;;18.60;99.90;;;;;;5094123;28;20051;-62
2023/08/12 04:13:57;;;;;;;12.30;8.00;;;18.60;99.90;;;;;;5075612;28;20043;-62
2023/08/12 04:16:23;;;;;;;11.50;7.07;;;18.60;99.90;;;;;;5059303;28;20036;-63
2023/08/12 04:18:49;;;;;;;12.13;7.80;;;18.70;99.90;;;;;;5075798;28;20119;-62
2023/08/12 04:21:15;;;;;;;11.95;7.95;;;18.60;99.90;;;;;;5058351;28;20032;-63
2023/08/12 04:23:40;;;;;;;12.82;7.28;;;18.60;99.90;;;;;;5094013;28;20040;-62
2023/08/12 04:26:06;;;;;;;13.15;7.60;;;18.60;99.90;;;;;;5093755;28;20074;-62
2023/08/12 04:28:32;;;;;;;11.50;7.82;;;18.60;99.90;;;;;;5092918;28;20040;-62
2023/08/12 04:30:57;;;;;;;12.63;6.53;;;18.60;99.90;;;;;;5059361;28;20201;-62
2023/08/12 04:33:23;;;;;;;11.48;7.43;;;18.60;99.90;;;;;;5075109;28;20047;-62
2023/08/12 04:35:49;;;;;;;10.05;6.53;;;18.60;99.90;;;;;;5075408;28;20040;-63
2023/08/12 04:38:15;;;;;;;12.50;6.75;;;18.60;99.90;;;;;;5093577;28;20035;-62
2023/08/12 04:40:42;;;;;;;14.02;6.82;;;18.60;99.90;;;;;;5092971;28;20032;-63
2023/08/12 04:43:08;;;;;;;9.55;5.93;;;18.70;99.90;;;;;;5093416;28;20082;-63
2023/08/12 04:45:34;;;;;;;11.75;7.85;;;18.60;99.90;;;;;;5093624;28;20039;-62
2023/08/12 04:48:00;;;;;;;10.52;6.38;;;18.60;99.90;;;;;;5074781;28;20458;-63
2023/08/12 04:50:30;;;;;;;10.90;6.88;;;18.60;99.90;;;;;;5093130;28;20055;-62
2023/08/12 04:52:56;;;;;;;12.95;7.55;;;18.70;99.90;;;;;;5075859;28;20036;-62
2023/08/12 04:55:21;;;;;;;11.50;6.47;;;18.70;99.90;;;;;;5074466;28;20081;-62
2023/08/12 04:57:47;;;;;;;12.13;6.13;;;18.70;99.90;;;;;;5058179;28;20040;-62
2023/08/12 05:00:14;;;;;;;10.90;5.63;;;18.80;99.90;;;;;;5075174;28;20089;-62
2023/08/12 05:02:40;;;;;;;11.25;6.25;;;18.80;99.90;;;;;;5074493;28;20048;-62
2023/08/12 05:05:06;;;;;;;14.05;6.75;;;18.80;99.90;;;;;;5092953;28;20036;-62
2023/08/12 05:07:33;;;;;;;9.93;6.13;;;18.90;99.90;;;;;;5093022;28;20125;-62
2023/08/12 05:09:59;;;;;;;13.90;6.65;;;18.90;99.90;;;;;;5092663;28;20044;-62
2023/08/12 05:12:25;;;;;;;10.48;6.05;;;19.00;99.90;;;;;;5092660;28;20044;-63
2023/08/12 05:14:50;;;;;;;10.77;5.80;;;19.00;99.90;;;;;;5075057;28;20043;-63
2023/08/12 05:17:16;;;;;;;12.80;6.30;;;19.10;99.90;;;;;;5092077;28;20040;-63
2023/08/12 05:19:42;;;;;;;10.80;5.80;;;19.10;99.90;;;;;;5074849;28;20047;-63
2023/08/12 05:22:07;;;;;;;14.52;6.60;;;19.10;99.90;;;;;;5074717;28;20048;-62
2023/08/12 05:24:33;;;;;;;9.63;6.32;;;19.20;99.90;;;;;;5073860;28;20055;-63
2023/08/12 05:26:59;;;;;;;9.18;5.90;;;19.20;99.90;;;;;;5084219;28;20032;-62
2023/08/12 05:29:24;;;;;;;11.07;6.22;;;19.30;99.90;;;;;;5076725;28;20165;-63
2023/08/12 05:31:50;;;;;;;12.82;6.72;;;19.30;99.90;;;;;;5055307;28;20084;-62
2023/08/12 05:34:16;;;;;;;11.38;6.13;;;19.30;99.90;;;;;;5074392;28;20488;-62
2023/08/12 05:36:41;;;;;;;10.95;6.78;;;19.30;99.90;;;;;;5073954;28;20032;-62
2023/08/12 05:39:07;;;;;;;9.82;6.18;;;19.40;99.90;;;;;;5073997;28;20104;-62
2023/08/12 05:41:33;;;;;;;12.07;6.35;;;19.40;99.90;;;;;;5074628;28;20393;-62
2023/08/12 05:43:58;;;;;;;11.50;6.25;;;19.40;99.90;;;;;;5081195;28;20543;-62
2023/08/12 05:46:24;;;;;;;11.82;7.20;;;19.40;99.90;;;;;;5057371;28;20036;-62
2023/08/12 05:48:50;;;;;;;11.50;6.30;;;19.40;99.90;;;;;;5049973;28;20052;-62
2023/08/12 05:51:15;;;;;;;12.20;6.68;;;19.40;99.90;;;;;;5071747;28;20045;-63
2023/08/12 05:53:41;;;;;;;11.70;6.35;;;19.40;99.90;;;;;;5072614;28;20051;-63
2023/08/12 05:56:07;;;;;;;11.98;7.05;;;19.40;99.90;;;;;;5074485;28;20048;-62
2023/08/12 05:58:32;;;;;;;11.82;7.25;;;19.40;99.90;;;;;;5090942;28;20480;-63
2023/08/12 06:00:58;;;;;;;11.77;7.45;;;19.40;99.90;;;;;;5085066;28;20029;-62
2023/08/12 06:03:24;;;;;;;12.45;7.95;;;19.40;99.90;;;;;;5054102;28;20444;-62
2023/08/12 06:05:49;;;;;;;13.60;7.88;;;19.40;99.90;;;;;;5037002;28;20036;-62
2023/08/12 06:08:15;;;;;;;11.43;6.70;;;19.40;99.90;;;;;;5053700;28;20401;-63
2023/08/12 06:10:41;;;;;;;13.85;7.55;;;19.40;99.90;;;;;;5071262;28;20081;-62
2023/08/12 06:13:07;;;;;;;11.55;7.20;;;19.40;99.90;;;;;;5090687;28;20044;-62
2023/08/12 06:15:33;;;;;;;9.80;6.85;;;19.40;99.90;;;;;;5056450;28;20122;-62
2023/08/12 06:18:00;;;;;;;10.48;6.38;;;19.40;99.90;;;;;;5057260;28;20059;-62
2023/08/12 06:20:26;;;;;;;15.32;7.05;;;19.40;99.90;;;;;;5062328;28;20052;-62
2023/08/12 06:22:52;;;;;;;11.25;7.75;;;19.40;99.90;;;;;;5063553;28;20036;-62
2023/08/12 06:25:18;;;;;;;11.82;7.00;;;19.40;99.90;;;;;;5073984;28;20044;-61
2023/08/12 06:27:44;;;;;;;15.05;7.18;;;19.40;99.90;;;;;;5073258;28;20389;-62
2023/08/12 06:30:11;;;;;;;12.75;7.88;;;19.40;99.90;;;;;;5074310;28;20507;-62
2023/08/12 06:32:37;;;;;;;13.30;7.95;;;19.50;99.90;;;;;;5067045;28;20411;-62
2023/08/12 06:35:03;;;;;;;14.90;7.85;;;19.50;99.90;;;;;;5071005;28;20044;-62
2023/08/12 06:37:29;;;;;;;12.07;7.53;;;19.50;99.90;;;;;;5071505;28;20139;-62
2023/08/12 06:39:55;;;;;;;15.45;7.88;;;19.50;99.90;;;;;;5071470;28;20131;-62
2023/08/12 06:42:21;;;;;;;12.23;7.40;;;19.50;99.90;;;;;;5071495;28;20594;-62
2023/08/12 06:44:58;;;;;;;12.65;7.97;;;19.50;99.90;;;;;;5070907;28;20044;-62
2023/08/12 06:47:23;;;;;;;12.80;8.10;;;19.60;99.90;;;;;;5070700;28;20043;-63
2023/08/12 06:49:49;;;;;;;15.57;8.90;;;19.50;99.90;;;;;;5089231;28;20042;-62
2023/08/12 06:52:16;;;;;;;15.32;8.63;;;19.60;99.90;;;;;;5069716;28;20051;-62
2023/08/12 06:54:41;;;;;;;13.98;9.15;;;19.60;99.90;;;;;;5088800;28;20049;-62
2023/08/12 06:57:07;;;;;;;16.48;9.25;;;19.60;99.90;;;;;;5070686;28;20044;-62
2023/08/12 06:59:33;;;;;;;15.25;8.07;;;19.60;99.90;;;;;;5089561;28;20051;-62
2023/08/12 07:01:58;;;;;;;13.82;8.70;;;19.60;99.90;;;;;;5089231;28;20032;-62
2023/08/12 07:04:25;;;;;;;15.75;8.43;;;19.60;99.90;;;;;;5080935;28;20556;-62
2023/08/12 07:06:51;;;;;;;14.23;10.20;;;19.70;99.90;;;;;;5063393;28;20090;-62
2023/08/12 07:09:16;;;;;;;16.10;8.50;;;19.70;99.90;;;;;;5050490;28;20068;-62
2023/08/12 07:11:42;;;;;;;13.73;9.52;;;19.70;99.90;;;;;;5084005;28;20044;-62
2023/08/12 07:14:08;;;;;;;14.63;9.43;;;19.60;99.90;;;;;;5092194;28;20426;-62
2023/08/12 07:16:33;;;;;;;14.52;9.52;;;19.70;99.90;;;;;;5091586;28;20828;-62
2023/08/12 07:18:59;;;;;;;14.43;9.90;;;19.70;99.90;;;;;;5069796;28;20551;-62
2023/08/12 07:21:25;;;;;;;15.30;9.60;;;19.70;99.90;;;;;;5073737;28;20040;-62
2023/08/12 07:23:50;;;;;;;17.25;10.25;;;19.70;99.90;;;;;;5062485;28;20094;-62
2023/08/12 07:26:16;;;;;;;14.48;9.93;;;19.80;99.90;;;;;;5074306;28;20138;-62
2023/08/12 07:28:42;;;;;;;14.55;10.15;;;19.80;99.90;;;;;;5092927;28;20040;-62
2023/08/12 07:31:08;;;;;;;15.57;10.13;;;19.80;99.90;;;;;;5072839;28;20054;-62
2023/08/12 07:33:34;;;;;;;17.20;10.23;;;19.90;99.90;;;;;;5073460;28;20050;-62
2023/08/12 07:36:00;;;;;;;16.55;10.60;;;19.90;99.90;;;;;;5056959;28;20036;-62
2023/08/12 07:38:25;;;;;;;16.08;11.48;;;19.90;99.90;;;;;;5056372;28;20055;-62
2023/08/12 07:40:51;;;;;;;21.08;12.77;;;20.00;99.90;;;;;;5068937;28;20032;-62
2023/08/12 07:43:17;;;;;;;20.17;12.02;;;20.00;99.90;;;;;;5063279;28;20067;-62
2023/08/12 07:45:43;;;;;;;19.60;11.68;;;20.00;99.90;;;;;;5091338;28;20039;-62
2023/08/12 07:48:09;;;;;;;20.83;12.02;;;20.00;99.90;;;;;;5091527;28;20057;-62
2023/08/12 07:50:34;;;;;;;17.25;11.45;;;20.00;99.90;;;;;;5054877;28;20036;-62
2023/08/12 07:53:00;;;;;;;16.92;10.65;;;20.00;99.90;;;;;;5072561;28;20435;-62
2023/08/12 07:55:27;;;;;;;18.77;12.13;;;20.00;99.90;;;;;;5052953;28;20048;-62
2023/08/12 07:57:53;;;;;;;20.20;13.43;;;20.00;99.90;;;;;;5072541;28;20397;-62
2023/08/12 08:00:19;;;;;;;18.23;12.27;;;20.00;99.90;;;;;;5087702;28;20028;-62
2023/08/12 08:02:45;;;;;;;16.88;12.00;;;20.00;99.90;;;;;;5071016;28;20040;-62
2023/08/12 08:05:10;;;;;;;19.52;11.57;;;20.00;99.90;;;;;;5070381;28;20513;-62
2023/08/12 08:07:36;;;;;;;16.75;11.77;;;20.00;99.90;;;;;;5091060;28;20130;-63
2023/08/12 08:10:02;;;;;;;18.95;13.13;;;19.90;99.90;;;;;;5073424;28;20040;-62
2023/08/12 08:12:28;;;;;;;19.23;12.35;;;20.00;99.90;;;;;;5068098;28;20036;-61
2023/08/12 08:14:53;;;;;;;21.27;13.63;;;20.00;99.90;;;;;;5054716;28;20045;-62
2023/08/12 08:17:19;;;;;;;19.45;13.05;;;19.90;99.90;;;;;;5087358;28;20040;-62
2023/08/12 08:19:45;;;;;;;19.65;14.13;;;19.90;99.90;;;;;;5076468;28;20123;-62
2023/08/12 08:22:10;;;;;;;17.80;11.27;;;19.90;99.90;;;;;;5079377;28;20028;-63
2023/08/12 08:24:36;;;;;;;16.65;12.65;;;19.90;99.90;;;;;;5055900;28;20098;-62
2023/08/12 08:27:04;;;;;;;17.48;11.93;;;19.90;99.90;;;;;;5052485;28;20036;-62
2023/08/12 08:29:30;;;;;;;18.73;12.23;;;19.80;99.90;;;;;;5052435;28;20052;-62
2023/08/12 08:31:55;;;;;;;20.55;13.43;;;19.80;99.90;;;;;;5052706;28;20046;-62
2023/08/12 08:34:24;;;;;;;19.90;13.30;;;19.90;99.90;;;;;;5061328;28;20040;-62
2023/08/12 08:36:51;;;;;;;19.23;14.48;;;19.90;99.90;;;;;;5056640;28;20035;-61
2023/08/12 08:39:16;;;;;;;16.48;11.15;;;19.80;99.90;;;;;;5072963;28;20036;-61
2023/08/12 08:41:46;;;;;;;19.95;12.98;;;19.80;99.90;;;;;;5072431;28;20071;-61
2023/08/12 08:44:14;;;;;;;18.55;13.30;;;19.80;99.90;;;;;;5072943;28;20055;-61
2023/08/12 08:46:41;;;;;;;17.60;10.63;;;19.80;99.90;;;;;;5090607;28;20380;-61
2023/08/12 08:49:10;;;;;;;17.77;12.95;;;19.70;99.90;;;;;;5072737;28;20068;-61
2023/08/12 08:51:35;;;;;;;17.67;13.05;;;19.80;99.90;;;;;;5071282;28;20122;-61
2023/08/12 08:54:04;;;;;;;19.70;12.52;;;19.90;99.90;;;;;;5090780;28;20127;-61
2023/08/12 08:56:35;;;;;;;18.20;12.18;;;19.90;99.90;;;;;;5072056;28;20071;-61
2023/08/12 08:59:01;;;;;;;16.60;11.65;;;20.00;99.90;;;;;;5073101;28;20043;-61
2023/08/12 09:01:29;;;;;;;22.02;13.05;;;19.90;99.90;;;;;;5089845;28;20040;-61
2023/08/12 09:03:55;;;;;;;18.75;13.27;;;20.00;99.90;;;;;;5089753;28;20075;-61
2023/08/12 09:06:22;;;;;;;20.92;13.98;;;20.00;99.90;;;;;;5069908;28;20111;-61
2023/08/12 09:08:51;;;;;;;21.35;14.15;;;20.00;99.90;;;;;;5069866;28;20036;-61
2023/08/12 09:11:18;;;;;;;22.60;13.73;;;20.00;99.90;;;;;;5070392;28;20366;-61
2023/08/12 09:13:45;;;;;;;17.98;12.05;;;20.00;99.90;;;;;;5052561;28;20516;-61
2023/08/12 09:16:10;;;;;;;20.33;12.95;;;20.10;99.90;;;;;;5035992;28;20037;-61
2023/08/12 09:18:37;;;;;;;22.05;14.73;;;20.10;99.90;;;;;;5071557;28;20051;-61
2023/08/12 09:21:04;;;;;;;18.30;12.45;;;20.00;99.90;;;;;;5089990;28;20051;-62
2023/08/12 09:23:37;;;;;;;21.30;13.77;;;20.00;99.90;;;;;;5087747;28;20066;-62
2023/08/12 09:26:15;;;;;;;23.88;15.52;;;20.00;99.90;;;;;;5072161;28;20485;-62
2023/08/12 09:28:44;;;;;;;22.63;16.20;;;19.90;99.90;;;;;;5070932;28;20050;-61
2023/08/12 09:31:25;;;;;;;21.40;15.50;;;19.90;99.90;;;;;;5054361;28;20100;-61
2023/08/12 09:33:51;;;;;;;22.98;15.48;;;19.90;99.90;;;;;;5043510;28;20048;-62
2023/08/12 09:36:17;;;;;;;19.60;15.15;;;19.90;99.90;;;;;;5070855;28;20038;-61
2023/08/12 09:38:47;;;;;;;24.17;15.75;;;19.90;99.90;;;;;;5088927;28;20111;-61
2023/08/12 09:41:13;;;;;;;25.08;15.38;;;20.00;99.90;;;;;;5071018;28;20043;-61
2023/08/12 09:43:42;;;;;;;17.92;13.90;;;20.00;99.90;;;;;;5070798;28;20027;-61
2023/08/12 09:46:15;;;;;;;22.10;16.00;;;20.00;99.90;;;;;;5088645;28;20040;-61
2023/08/12 09:48:40;;;;;;;18.50;14.38;;;20.00;99.90;;;;;;5074683;28;20086;-61
2023/08/12 09:51:07;;;;;;;24.20;18.30;;;20.10;99.90;;;;;;5069078;28;20093;-61
2023/08/12 09:53:33;;;;;;;25.42;16.02;;;20.00;99.90;;;;;;5071049;28;20480;-61
2023/08/12 09:56:11;;;;;;;24.10;17.05;;;20.10;99.90;;;;;;5088199;28;20534;-61
2023/08/12 09:58:37;;;;;;;25.50;20.15;;;20.10;99.90;;;;;;5070378;28;20523;-61
2023/08/12 10:01:07;;;;;;;20.45;14.07;;;20.30;99.90;;;;;;5089308;28;20036;-61
2023/08/12 10:03:35;;;;;;;19.38;16.00;;;20.20;99.90;;;;;;5089116;28;20032;-61
2023/08/12 10:06:02;;;;;;;21.50;17.75;;;20.30;99.90;;;;;;5054626;28;20048;-61
2023/08/12 10:08:29;;;;;;;20.90;15.20;;;20.30;99.90;;;;;;5052846;28;20027;-61
2023/08/12 10:10:55;;;;;;;20.75;15.98;;;20.40;99.90;;;;;;5071358;28;20197;-61
2023/08/12 10:13:22;;;;;;;18.55;14.98;;;20.40;99.90;;;;;;5063781;28;20580;-61
2023/08/12 10:15:49;;;;;;;21.95;16.27;;;20.40;99.90;;;;;;5086230;28;20083;-61
2023/08/12 10:18:16;;;;;;;20.60;16.38;;;20.30;99.90;;;;;;5052207;28;20044;-61
2023/08/12 10:20:44;;;;;;;25.92;18.10;;;20.30;99.90;;;;;;5087854;28;20032;-61
2023/08/12 10:23:15;;;;;;;16.55;14.02;;;20.40;99.90;;;;;;5069092;28;20040;-61
2023/08/12 10:25:42;;;;;;;21.38;16.33;;;20.30;99.90;;;;;;5064362;28;20496;-63
2023/08/12 10:28:08;;;;;;;25.70;18.55;;;20.50;99.90;;;;;;5069536;28;20081;-64
2023/08/12 10:30:35;;;;;;;23.38;17.17;;;20.50;99.90;;;;;;5088828;28;20044;-64
2023/08/12 10:33:01;;;;;;;11.80;8.35;;;20.50;99.90;;;;;;5087363;28;20380;-63
2023/08/12 10:35:48;;;;;;;10.27;5.43;;;20.30;99.90;;;;;;5071499;28;20072;-65
2023/08/12 10:38:17;;;;;;;11.20;4.55;;;19.90;99.90;;;;;;5071397;28;20703;-65
2023/08/12 10:40:43;;;;;;;11.88;4.18;;;19.60;99.90;;;;;;5070406;28;20354;-65
2023/08/12 10:43:09;;;;;;;9.52;3.65;;;19.30;99.90;;;;;;5070783;28;20093;-63
2023/08/12 10:45:43;;;;;;;7.63;3.80;;;19.10;99.90;;;;;;5091827;28;20043;-63
2023/08/12 10:48:11;;;;;;;8.57;4.00;;;19.00;99.90;;;;;;5074603;28;20052;-62
2023/08/12 10:50:43;;;;;;;9.27;3.22;;;18.90;99.90;;;;;;5071813;28;20511;-62
2023/08/12 10:53:32;;;;;;;11.57;3.88;;;18.80;99.90;;;;;;5086332;28;20090;-61
2023/08/12 10:56:03;;;;;;;7.40;3.78;;;18.70;99.90;;;;;;5072295;28;20044;-61
2023/08/12 10:58:41;;;;;;;9.77;3.80;;;18.60;99.90;;;;;;5054221;28;20757;-62
2023/08/12 11:01:13;;;;;;;10.80;3.15;;;18.70;99.90;;;;;;5064460;28;20043;-61
2023/08/12 11:03:42;;;;;;;9.75;3.63;;;18.60;99.90;;;;;;5074337;28;20054;-61
2023/08/12 11:06:10;;;;;;;6.85;3.30;;;18.60;99.90;;;;;;5092208;28;20036;-62
2023/08/12 11:08:36;;;;;;;6.43;3.03;;;18.60;99.90;;;;;;5073060;28;20118;-62
2023/08/12 11:11:02;;;;;;;8.82;2.92;;;18.60;99.90;;;;;;5092569;28;20202;-62
2023/08/12 11:13:28;;;;;;;11.73;3.10;;;18.50;99.90;;;;;;5091322;28;20435;-62
2023/08/12 11:16:07;;;;;;;10.07;3.03;;;18.50;99.90;;;;;;5091869;28;20036;-61
2023/08/12 11:18:33;;;;;;;6.90;2.95;;;18.40;99.90;;;;;;5073037;28;20082;-62
2023/08/12 11:21:00;;;;;;;7.63;2.92;;;18.30;99.90;;;;;;5043692;28;20028;-62
2023/08/12 11:23:25;;;;;;;6.47;2.60;;;18.40;99.90;;;;;;5073978;28;20051;-61
2023/08/12 11:25:52;;;;;;;8.07;3.03;;;18.40;99.90;;;;;;5074042;28;20126;-62
2023/08/12 11:28:21;;;;;;;8.25;3.15;;;18.40;99.90;;;;;;5073005;28;20089;-61
2023/08/12 11:30:47;;;;;;;6.68;2.83;;;18.30;99.90;;;;;;5074049;28;20048;-61
2023/08/12 11:33:18;;;;;;;7.47;2.83;;;18.30;99.90;;;;;;5091324;28;20047;-60
2023/08/12 11:35:43;;;;;;;5.88;2.47;;;18.20;99.90;;;;;;5073797;28;20048;-60
2023/08/12 11:38:09;;;;;;;6.93;2.65;;;18.20;99.90;;;;;;5054690;28;20390;-61
2023/08/12 11:40:35;;;;;;;7.03;2.47;;;18.10;99.90;;;;;;5054711;28;20843;-61
2023/08/12 11:43:01;;;;;;;6.38;2.53;;;18.10;99.90;;;;;;5085583;28;20031;-61
2023/08/12 11:45:28;;;;;;;8.55;2.85;;;18.20;99.90;;;;;;5091746;28;20044;-61
2023/08/12 11:47:54;;;;;;;9.07;2.90;;;18.10;99.90;;;;;;5073369;28;20082;-61
2023/08/12 11:50:22;;;;;;;7.88;2.53;;;18.10;99.90;;;;;;5071557;28;20840;-61
2023/08/12 11:52:49;;;;;;;8.15;3.47;;;18.10;99.90;;;;;;5091588;28;20044;-61
2023/08/12 11:55:16;;;;;;;8.40;3.10;;;18.20;99.90;;;;;;5071247;28;20110;-60
2023/08/12 11:57:43;;;;;;;13.85;3.25;;;18.10;99.90;;;;;;5066750;28;20492;-61
2023/08/12 12:00:13;;;;;;;9.48;3.10;;;18.10;99.90;;;;;;5091089;28;20040;-61
2023/08/12 12:02:41;;;;;;;9.00;3.33;;;18.20;99.90;;;;;;5073186;28;20079;-61
2023/08/12 12:05:11;;;;;;;6.75;2.45;;;18.20;99.90;;;;;;5055782;28;20055;-61
2023/08/12 12:07:37;;;;;;;7.55;3.05;;;18.40;99.90;;;;;;5065939;28;20564;-61
2023/08/12 12:10:03;;;;;;;6.85;2.92;;;18.50;99.90;;;;;;5072748;28;20083;-61
2023/08/12 12:12:28;;;;;;;7.80;2.70;;;18.50;99.90;;;;;;5072511;28;20040;-61
2023/08/12 12:14:56;;;;;;;7.95;3.15;;;18.60;99.90;;;;;;5057168;28;20127;-61
2023/08/12 12:17:24;;;;;;;8.55;2.70;;;18.80;99.90;;;;;;5073644;28;20435;-60
2023/08/12 12:19:58;;;;;;;11.80;2.83;;;18.80;99.90;;;;;;5091483;28;20040;-61
2023/08/12 12:22:32;;;;;;;7.78;2.58;;;19.00;99.90;;;;;;5073731;28;20040;-61
2023/08/12 12:25:07;;;;;;;7.32;2.83;;;19.00;99.90;;;;;;5091496;28;20489;-60
2023/08/12 12:27:35;;;;;;;8.70;2.85;;;19.20;99.90;;;;;;5073497;28;20048;-60
2023/08/12 12:30:01;;;;;;;8.98;3.00;;;19.30;99.90;;;;;;5067214;28;20044;-61
2023/08/12 12:32:27;;;;;;;9.27;3.05;;;19.40;99.90;;;;;;5052167;28;20052;-61
2023/08/12 12:34:54;;;;;;;9.48;3.53;;;19.50;99.90;;;;;;5071051;28;20147;-61
2023/08/12 12:37:20;;;;;;;9.20;3.03;;;19.60;99.90;;;;;;5056407;28;20102;-61